Time;durP1;ratioP1;P1;durP2;ratioP2;P2;SDS_P1;SDS_P2;PMS_P1;PMS_P2;Temp;Humidity;BMP_temperature;BMP_pressure;BME280_temperature;BME280_humidity;BME280_pressure;Samples;Min_cycle;Max_cycle;Signal;HPM_P1;HPM_P2
2021/08/23 00:01:14;;;;;;;5.57;3.97;;;;;;;19.15;90.17;100071.22;6272840;28;20463;-84
2021/08/23 00:04:15;;;;;;;6.87;3.43;;;;;;;19.14;90.28;100069.56;6273692;28;20094;-83
2021/08/23 00:07:16;;;;;;;6.57;4.00;;;;;;;19.15;90.55;100071.22;6307285;28;20047;-84
2021/08/23 00:10:17;;;;;;;9.03;3.80;;;;;;;19.14;89.81;100064.25;6290614;28;20036;-83
2021/08/23 00:13:18;;;;;;;6.90;3.77;;;;;;;19.20;90.58;100065.50;6306918;28;20047;-83
2021/08/23 00:16:19;;;;;;;6.82;3.70;;;;;;;19.21;89.24;100064.50;6290330;28;20501;-83
2021/08/23 00:19:21;;;;;;;5.57;4.07;;;;;;;19.23;86.01;100070.47;6273758;28;20051;-82
2021/08/23 00:22:32;;;;;;;4.55;3.60;;;;;;;19.26;86.95;100065.72;6273323;28;20273;-83
2021/08/23 00:25:33;;;;;;;5.25;3.80;;;;;;;19.21;86.71;100068.00;6293366;28;20064;-83
2021/08/23 00:28:34;;;;;;;5.63;3.47;;;;;;;19.14;87.64;100061.63;6306460;28;20040;-83
2021/08/23 00:31:35;;;;;;;7.63;3.40;;;;;;;19.12;85.12;100071.50;6289646;28;20105;-82
2021/08/23 00:34:36;;;;;;;6.13;3.43;;;;;;;19.05;84.91;100070.47;6289743;28;20482;-83
2021/08/23 00:37:38;;;;;;;5.23;3.40;;;;;;;19.07;84.97;100085.19;6306372;28;20055;-83
2021/08/23 00:40:38;;;;;;;;;;;;;;;18.95;85.24;100085.53;6307278;28;20402;-83
2021/08/23 00:43:39;;;;;;;4.70;3.45;;;;;;;18.97;85.81;100076.47;6273391;28;19927;-82
2021/08/23 00:46:40;;;;;;;4.00;3.17;;;;;;;19.07;86.36;100081.72;6306304;28;20047;-82
2021/08/23 00:49:41;;;;;;;7.68;3.40;;;;;;;19.12;85.98;100076.81;6324262;28;20052;-82
2021/08/23 00:52:42;;;;;;;8.53;3.43;;;;;;;19.21;82.29;100077.72;6272921;28;20046;-83
2021/08/23 00:55:44;;;;;;;7.15;3.58;;;;;;;19.22;79.43;100067.00;6306261;28;20040;-83
2021/08/23 00:58:46;;;;;;;5.97;3.60;;;;;;;19.24;80.42;100067.69;6289481;28;20470;-83
2021/08/23 01:02:10;;;;;;;4.97;3.40;;;;;;;19.26;81.16;100064.91;6306094;28;20044;-84
2021/08/23 01:05:26;;;;;;;8.02;3.20;;;;;;;19.31;81.36;100059.97;6305671;28;20056;-83
2021/08/23 01:08:36;;;;;;;6.32;3.40;;;;;;;19.34;83.61;100051.75;6323802;28;20119;-83
2021/08/23 01:11:45;;;;;;;4.60;3.58;;;;;;;19.36;85.15;100051.59;6304294;28;20044;-84
2021/08/23 01:14:47;;;;;;;7.65;3.50;;;;;;;19.36;84.74;100047.13;6322226;28;20071;-84
2021/08/23 01:17:48;;;;;;;;;;;;;;;19.37;84.90;100048.78;6304552;28;20076;-84
2021/08/23 01:20:51;;;;;;;4.78;3.40;;;;;;;19.38;82.56;100049.66;6304179;28;19934;-84
2021/08/23 01:23:53;;;;;;;10.73;3.45;;;;;;;19.43;83.25;100048.19;6305079;28;20042;-82
2021/08/23 01:26:57;;;;;;;5.13;3.75;;;;;;;19.47;86.31;100048.72;6323243;28;20071;-84
2021/08/23 01:30:12;;;;;;;6.72;3.55;;;;;;;19.50;84.18;100049.25;6289037;28;20036;-83
2021/08/23 01:33:13;;;;;;;5.03;3.70;;;;;;;19.51;82.86;100050.09;6323254;28;20482;-83
2021/08/23 01:36:14;;;;;;;8.32;3.70;;;;;;;19.49;82.94;100033.53;6288581;28;20047;-83
2021/08/23 01:39:16;;;;;;;4.15;3.42;;;;;;;19.44;80.98;100041.09;6272222;28;20048;-82
2021/08/23 01:42:17;;;;;;;6.45;3.95;;;;;;;19.45;82.91;100040.09;6305090;28;20072;-83
2021/08/23 01:45:18;;;;;;;4.65;3.50;;;;;;;19.44;83.41;100039.28;6288364;28;20051;-82
2021/08/23 01:48:19;;;;;;;5.90;4.00;;;;;;;19.40;80.00;100037.09;6288138;28;20453;-82
2021/08/23 01:51:20;;;;;;;8.32;4.55;;;;;;;19.37;80.16;100043.50;6288077;28;20047;-82
2021/08/23 01:54:22;;;;;;;6.10;4.00;;;;;;;19.38;82.21;100033.78;6304619;28;20506;-83
2021/08/23 01:57:22;;;;;;;4.93;3.30;;;;;;;19.35;82.17;100034.06;6288513;28;20505;-83
2021/08/23 02:00:23;;;;;;;5.77;4.00;;;;;;;19.36;82.68;100038.38;6271913;28;20044;-85
2021/08/23 02:03:24;;;;;;;5.97;4.50;;;;;;;19.37;79.76;100037.38;6288944;28;20717;-84
2021/08/23 02:06:25;;;;;;;6.60;3.90;;;;;;;19.31;81.53;100036.16;6271956;28;20040;-84
2021/08/23 02:09:26;;;;;;;9.27;4.73;;;;;;;19.28;80.75;100039.94;6287945;28;20072;-84
2021/08/23 02:12:27;;;;;;;8.43;4.53;;;;;;;19.29;81.00;100032.84;6304677;28;20047;-83
2021/08/23 02:15:28;;;;;;;7.43;5.13;;;;;;;19.30;80.65;100035.34;6287139;28;20043;-83
2021/08/23 02:18:29;;;;;;;7.30;4.80;;;;;;;19.27;83.51;100026.88;6287945;28;20487;-84
2021/08/23 02:21:30;;;;;;;9.73;5.70;;;;;;;19.24;80.60;100024.53;6288380;28;20403;-84
2021/08/23 02:24:33;;;;;;;7.60;5.27;;;;;;;19.21;82.43;100027.47;6271589;28;20043;-83
2021/08/23 02:27:34;;;;;;;8.90;5.85;;;;;;;19.16;82.23;100021.81;6288178;28;20101;-85
2021/08/23 02:30:37;;;;;;;12.77;6.63;;;;;;;19.10;82.11;100025.88;6304289;28;20552;-83
2021/08/23 02:33:38;;;;;;;9.32;7.10;;;;;;;19.06;81.86;100013.94;6304009;28;20169;-83
2021/08/23 02:36:39;;;;;;;14.20;6.60;;;;;;;19.06;82.28;100006.00;6287031;28;20052;-82
2021/08/23 02:39:40;;;;;;;12.97;6.77;;;;;;;18.98;82.97;100012.03;6303910;28;20042;-83
2021/08/23 02:42:41;;;;;;;13.07;7.20;;;;;;;18.95;82.89;100008.88;6287480;28;20406;-83
2021/08/23 02:45:42;;;;;;;12.95;7.22;;;;;;;18.96;85.72;100006.06;6287479;28;20059;-83
2021/08/23 02:48:45;;;;;;;14.23;8.47;;;;;;;18.96;83.95;100003.41;6304251;28;20512;-83
2021/08/23 02:51:46;;;;;;;10.77;7.00;;;;;;;18.95;83.90;99995.66;6271186;28;20451;-83
2021/08/23 02:54:47;;;;;;;13.40;7.50;;;;;;;18.93;85.97;100001.06;6270896;28;20123;-83
2021/08/23 02:57:47;;;;;;;13.03;7.40;;;;;;;18.88;86.62;99990.97;6303867;28;20502;-82
2021/08/23 03:00:48;;;;;;;13.03;7.70;;;;;;;18.83;85.02;99995.03;6304207;28;20036;-82
2021/08/23 03:03:49;;;;;;;12.30;7.10;;;;;;;18.81;84.05;99995.16;6287327;28;20044;-82
2021/08/23 03:06:50;;;;;;;15.27;7.80;;;;;;;18.83;84.47;99997.66;6286990;28;20040;-83
2021/08/23 03:09:51;;;;;;;15.07;8.20;;;;;;;18.82;84.32;99993.34;6321596;28;20044;-82
2021/08/23 03:12:52;;;;;;;13.47;7.47;;;;;;;18.79;84.71;99997.13;6287044;28;20052;-84
2021/08/23 03:15:53;;;;;;;13.20;7.22;;;;;;;18.80;81.82;99992.66;6303535;28;20043;-84
2021/08/23 03:18:54;;;;;;;12.50;7.40;;;;;;;18.82;80.81;99991.56;6303325;28;20056;-83
2021/08/23 03:21:55;;;;;;;15.17;7.30;;;;;;;18.78;81.07;100003.38;6303683;28;20512;-83
2021/08/23 03:24:55;;;;;;;15.50;7.83;;;;;;;18.74;81.07;100009.94;6286625;28;20040;-83
2021/08/23 03:27:56;;;;;;;11.17;6.90;;;;;;;18.71;82.90;100007.56;6274374;28;20089;-84
2021/08/23 03:30:57;;;;;;;11.57;6.43;;;;;;;18.68;84.60;100013.16;6308161;28;20490;-83
2021/08/23 03:33:58;;;;;;;13.23;7.00;;;;;;;18.77;83.63;100009.63;6274758;28;20044;-83
2021/08/23 03:37:00;;;;;;;9.90;6.40;;;;;;;18.73;83.19;100018.81;6273586;28;20067;-84
2021/08/23 03:40:02;;;;;;;8.70;6.10;;;;;;;18.70;81.55;100011.19;6324497;28;20063;-83
2021/08/23 03:43:03;;;;;;;8.52;6.03;;;;;;;18.67;81.81;100009.66;6290189;28;20217;-84
2021/08/23 03:46:04;;;;;;;11.90;5.60;;;;;;;18.63;81.72;100007.47;6289818;28;20048;-82
2021/08/23 03:49:05;;;;;;;7.03;5.07;;;;;;;18.64;82.55;100012.63;6306227;28;20627;-82
2021/08/23 03:52:06;;;;;;;9.80;5.50;;;;;;;18.69;82.78;100007.69;6289631;28;20380;-84
2021/08/23 03:55:08;;;;;;;9.90;5.17;;;;;;;18.76;85.85;100010.63;6273091;28;20072;-83
2021/08/23 03:58:09;;;;;;;8.90;4.88;;;;;;;18.72;84.36;100014.53;6289517;28;20109;-83
2021/08/23 04:01:09;;;;;;;11.57;5.80;;;;;;;18.67;85.19;100020.22;6305891;28;20044;-84
2021/08/23 04:04:10;;;;;;;8.87;5.37;;;;;;;18.65;85.76;100016.91;6306134;28;20044;-84
2021/08/23 04:07:11;;;;;;;8.37;4.83;;;;;;;18.63;89.22;100013.56;6272750;28;20040;-84
2021/08/23 04:10:12;;;;;;;10.17;5.17;;;;;;;18.59;86.09;100009.56;6305189;28;20068;-84
2021/08/23 04:13:14;;;;;;;5.87;4.70;;;;;;;18.60;86.50;100016.53;6281211;28;20075;-83
2021/08/23 04:16:18;;;;;;;9.23;4.65;;;;;;;18.68;86.19;100013.16;6247854;28;20047;-83
2021/08/23 04:19:19;;;;;;;9.13;4.25;;;;;;;18.65;86.62;100008.97;6289340;28;20599;-84
2021/08/23 04:22:20;;;;;;;11.57;4.70;;;;;;;18.59;86.80;100009.56;6285345;28;20036;-82
2021/08/23 04:25:21;;;;;;;5.47;4.37;;;;;;;18.55;87.92;100010.84;6288878;28;20047;-82
2021/08/23 04:28:22;;;;;;;5.53;4.27;;;;;;;18.54;88.41;100009.19;6305629;28;20168;-82
2021/08/23 04:31:24;;;;;;;7.30;4.53;;;;;;;18.49;88.91;100017.56;6278000;28;20068;-82
2021/08/23 04:34:25;;;;;;;9.20;4.20;;;;;;;18.49;90.09;100017.56;6247679;28;20064;-81
2021/08/23 04:37:25;;;;;;;6.57;4.17;;;;;;;18.44;91.41;100022.44;6254339;28;20523;-81
2021/08/23 04:40:26;;;;;;;11.83;4.40;;;;;;;18.44;90.23;100022.44;6239211;28;20090;-81
2021/08/23 04:43:27;;;;;;;8.53;4.57;;;;;;;18.42;90.68;100016.47;6255586;28;20454;-82
2021/08/23 04:46:28;;;;;;;7.45;4.40;;;;;;;18.44;91.55;100025.06;6277761;28;20547;-82
2021/08/23 04:49:29;;;;;;;9.63;4.37;;;;;;;18.47;91.17;100023.94;6296677;28;20045;-83
2021/08/23 04:52:29;;;;;;;6.03;4.63;;;;;;;18.47;90.91;100018.66;6296678;28;20044;-82
2021/08/23 04:55:30;;;;;;;13.03;4.53;;;;;;;18.51;91.44;100025.31;6279978;28;20380;-83
2021/08/23 04:58:31;;;;;;;7.63;4.70;;;;;;;18.56;93.96;100023.09;6279930;28;20041;-83
2021/08/23 05:01:32;;;;;;;8.37;4.30;;;;;;;18.59;90.90;100020.13;6296701;28;20040;-86
2021/08/23 05:04:33;;;;;;;7.90;4.17;;;;;;;18.64;90.93;100014.44;6313136;28;20040;-86
2021/08/23 05:07:34;;;;;;;10.30;4.90;;;;;;;18.69;92.13;100007.69;6296295;28;20037;-84
2021/08/23 05:10:34;;;;;;;9.90;4.30;;;;;;;18.76;91.61;100002.69;6313316;28;20040;-86
2021/08/23 05:13:35;;;;;;;8.63;4.50;;;;;;;18.84;92.29;100002.81;6280484;28;20090;-86
2021/08/23 05:16:36;;;;;;;20.17;4.57;;;;;;;18.88;92.68;100006.81;6288117;28;20041;-86
2021/08/23 05:19:37;;;;;;;9.97;4.80;;;;;;;18.92;91.83;99994.97;6255459;28;20037;-83
2021/08/23 05:22:39;;;;;;;13.53;4.60;;;;;;;18.95;92.34;99996.47;6275685;28;20037;-82
2021/08/23 05:25:40;;;;;;;8.13;4.55;;;;;;;18.95;93.52;99993.00;6286060;28;20037;-83
2021/08/23 05:28:40;;;;;;;11.37;4.63;;;;;;;18.93;92.66;99988.69;6263586;28;20071;-84
2021/08/23 05:31:41;;;;;;;7.33;4.33;;;;;;;18.94;92.93;99994.78;6270543;28;20079;-83
2021/08/23 05:34:44;;;;;;;7.37;4.33;;;;;;;18.98;93.21;99992.69;6261232;28;20479;-83
2021/08/23 05:37:45;;;;;;;7.55;4.25;;;;;;;19.00;94.65;99993.38;6277953;28;20071;-83
2021/08/23 05:40:46;;;;;;;14.87;4.60;;;;;;;19.10;93.33;100004.72;6278101;28;20037;-83
2021/08/23 05:43:47;;;;;;;6.00;4.33;;;;;;;19.28;92.01;100008.22;6294598;28;20083;-80
2021/08/23 05:46:48;;;;;;;7.00;4.60;;;;;;;19.39;90.85;99999.22;6277973;28;20498;-80
2021/08/23 05:49:55;;;;;;;9.07;4.10;;;;;;;19.52;90.58;100002.31;6261756;28;20137;-80
2021/08/23 05:53:00;;;;;;;8.55;4.57;;;;;;;19.61;90.56;100002.38;6276145;28;20071;-80
2021/08/23 05:56:16;;;;;;;6.65;4.05;;;;;;;19.79;90.07;99997.06;6271641;28;20522;-80
2021/08/23 05:59:25;;;;;;;10.47;4.37;;;;;;;19.92;88.76;99992.22;6249034;28;20123;-80
2021/08/23 06:02:25;;;;;;;6.65;4.65;;;;;;;20.00;88.72;99994.91;6296166;28;20674;-83
2021/08/23 06:05:26;;;;;;;7.10;4.03;;;;;;;20.16;86.45;100009.22;6295865;28;20055;-83
2021/08/23 06:08:27;;;;;;;6.57;4.40;;;;;;;20.47;84.22;100007.75;6293373;28;20044;-84
2021/08/23 06:11:28;;;;;;;8.67;3.90;;;;;;;20.58;83.85;100009.31;6277319;28;20048;-85
2021/08/23 06:14:29;;;;;;;7.53;4.23;;;;;;;20.64;83.24;100008.66;6252714;28;20044;-83
2021/08/23 06:17:29;;;;;;;11.13;4.27;;;;;;;20.73;83.31;100014.81;6269679;28;20044;-84
2021/08/23 06:20:30;;;;;;;20.13;4.57;;;;;;;20.77;82.40;100008.22;6286062;28;20041;-84
2021/08/23 06:23:31;;;;;;;7.90;4.30;;;;;;;20.85;83.58;100010.88;6252949;28;20055;-81
2021/08/23 06:26:32;;;;;;;13.00;4.10;;;;;;;20.81;81.10;100009.56;6285968;28;20076;-83
2021/08/23 06:29:33;;;;;;;7.05;3.97;;;;;;;20.73;82.70;100005.06;6285841;28;20091;-81
2021/08/23 06:32:34;;;;;;;10.30;4.23;;;;;;;20.68;84.31;100017.13;6275032;28;20048;-81
2021/08/23 06:35:35;;;;;;;11.38;4.15;;;;;;;20.73;83.76;100017.47;6288415;28;20480;-84
2021/08/23 06:38:36;;;;;;;6.73;4.03;;;;;;;20.86;82.12;100020.53;6261486;28;20047;-83
2021/08/23 06:41:39;;;;;;;13.30;4.45;;;;;;;20.90;82.21;100008.59;6250428;28;20036;-79
2021/08/23 06:44:40;;;;;;;7.47;4.00;;;;;;;21.06;81.57;100006.97;6285720;28;20506;-80
2021/08/23 06:47:41;;;;;;;8.00;3.88;;;;;;;21.20;80.82;100016.13;6303673;28;20486;-82
2021/08/23 06:50:41;;;;;;;6.63;3.70;;;;;;;21.45;80.80;100014.34;6270166;28;20076;-82
2021/08/23 06:53:42;;;;;;;13.07;4.10;;;;;;;21.81;75.63;100001.56;6270615;28;20055;-82
2021/08/23 06:56:43;;;;;;;6.03;4.27;;;;;;;22.22;74.22;100008.66;6304018;28;20048;-83
2021/08/23 06:59:44;;;;;;;5.53;3.80;;;;;;;22.43;74.23;100006.28;6273859;28;20123;-82
2021/08/23 07:02:45;;;;;;;6.50;4.00;;;;;;;22.52;73.20;100010.53;6270031;28;20067;-84
2021/08/23 07:05:46;;;;;;;4.30;3.43;;;;;;;22.38;69.92;100013.09;6286213;28;20044;-81
2021/08/23 07:08:47;;;;;;;7.77;3.60;;;;;;;22.22;74.00;100006.81;6269884;28;20349;-80
2021/08/23 07:11:48;;;;;;;11.50;3.73;;;;;;;22.14;72.76;100004.16;6303764;28;20123;-80
2021/08/23 07:14:49;;;;;;;10.87;3.67;;;;;;;22.24;73.98;100012.00;6287073;28;20040;-80
2021/08/23 07:17:49;;;;;;;6.05;3.20;;;;;;;22.52;71.49;100001.75;6286893;28;20046;-81
2021/08/23 07:20:53;;;;;;;7.43;3.67;;;;;;;22.66;68.03;100011.66;6311964;28;20089;-83
2021/08/23 07:23:54;;;;;;;5.47;3.50;;;;;;;22.74;69.12;100018.78;6277746;28;20483;-83
2021/08/23 07:26:55;;;;;;;7.40;3.97;;;;;;;22.84;67.46;100013.25;6299277;28;20069;-83
2021/08/23 07:29:56;;;;;;;4.93;3.50;;;;;;;23.19;68.35;100016.41;6268354;28;20036;-83
2021/08/23 07:32:56;;;;;;;5.75;3.60;;;;;;;23.53;62.34;100013.31;6303122;28;20587;-83
2021/08/23 07:35:57;;;;;;;10.47;4.13;;;;;;;23.58;62.18;100018.94;6270005;28;20491;-79
2021/08/23 07:38:58;;;;;;;7.50;3.88;;;;;;;23.79;64.30;100020.94;6303335;28;20043;-83
2021/08/23 07:41:59;;;;;;;8.03;3.67;;;;;;;24.00;63.83;100024.75;6303667;28;20392;-80
2021/08/23 07:45:00;;;;;;;12.60;3.83;;;;;;;24.11;63.51;100011.81;6270047;28;20044;-84
2021/08/23 07:48:01;;;;;;;6.90;3.57;;;;;;;24.23;59.11;100011.34;6302852;28;20036;-84
2021/08/23 07:51:02;;;;;;;9.82;3.33;;;;;;;23.98;58.53;100008.13;6303141;28;20493;-84
2021/08/23 07:54:03;;;;;;;6.57;3.45;;;;;;;23.91;60.88;100008.84;6286351;28;20044;-83
2021/08/23 07:57:05;;;;;;;7.05;3.53;;;;;;;24.06;62.13;100003.53;6302997;28;20123;-84
2021/08/23 08:00:06;;;;;;;15.35;3.80;;;;;;;24.38;55.34;99990.84;6286133;28;20052;-84
2021/08/23 08:03:07;;;;;;;6.03;3.30;;;;;;;24.27;60.44;99994.78;6285856;28;20040;-83
2021/08/23 08:06:08;;;;;;;12.07;3.88;;;;;;;24.45;57.41;99988.28;6302653;28;20043;-82
2021/08/23 08:09:09;;;;;;;8.80;4.15;;;;;;;24.95;58.91;99986.63;6285910;28;20044;-82
2021/08/23 08:12:10;;;;;;;11.53;3.70;;;;;;;25.31;56.89;99991.97;6302520;28;20044;-83
2021/08/23 08:15:11;;;;;;;10.70;3.67;;;;;;;25.03;54.63;99988.34;6273249;28;20458;-80
2021/08/23 08:18:12;;;;;;;;;;;;;;;25.02;54.40;99986.69;6274581;28;20077;-81
2021/08/23 08:21:13;;;;;;;8.73;3.60;;;;;;;25.22;54.05;99993.09;6307274;28;19968;-83
2021/08/23 08:24:14;;;;;;;9.87;3.80;;;;;;;25.45;53.24;99990.25;6265298;28;20048;-83
2021/08/23 08:27:15;;;;;;;15.48;4.43;;;;;;;25.68;53.83;99991.88;6268140;28;20375;-81
2021/08/23 08:30:17;;;;;;;12.13;4.20;;;;;;;25.85;51.71;100000.41;6317848;28;20047;-83
2021/08/23 08:33:18;;;;;;;12.15;3.95;;;;;;;25.81;52.02;99996.47;6305867;28;20044;-84
2021/08/23 08:36:21;;;;;;;9.02;3.55;;;;;;;26.01;53.85;99988.63;6256851;28;20391;-84
2021/08/23 08:39:22;;;;;;;13.90;4.05;;;;;;;26.17;49.46;99991.00;6306723;28;20101;-82
2021/08/23 08:42:23;;;;;;;12.27;4.25;;;;;;;26.40;49.91;99989.84;6306415;28;20028;-84
2021/08/23 08:45:26;;;;;;;16.98;4.65;;;;;;;26.56;50.17;99986.84;6272926;28;20056;-84
2021/08/23 08:48:29;;;;;;;10.35;3.83;;;;;;;26.63;50.91;99986.91;6306520;28;20047;-82
2021/08/23 08:51:31;;;;;;;10.93;4.00;;;;;;;26.83;49.82;99982.47;6289584;28;20471;-80
2021/08/23 08:54:32;;;;;;;11.63;4.10;;;;;;;26.70;46.81;99985.06;6289861;28;20493;-83
2021/08/23 08:57:33;;;;;;;21.13;5.22;;;;;;;26.92;50.86;99985.78;6272888;28;20119;-81
2021/08/23 09:00:40;;;;;;;14.40;4.05;;;;;;;27.17;46.40;99983.34;6288367;28;20048;-81
2021/08/23 09:03:45;;;;;;;18.90;3.70;;;;;;;27.40;46.51;99977.63;6305812;28;20040;-81
2021/08/23 09:06:48;;;;;;;10.90;3.33;;;;;;;27.62;43.09;99980.91;6305882;28;20040;-81
2021/08/23 09:09:49;;;;;;;10.18;3.30;;;;;;;27.53;42.45;99974.97;6305870;28;20550;-84
2021/08/23 09:13:23;;;;;;;8.38;3.50;;;;;;;27.71;41.70;99963.59;6289146;28;20041;-80
2021/08/23 09:16:32;;;;;;;10.23;3.53;;;;;;;27.83;41.30;99969.13;6273347;28;20064;-81
2021/08/23 09:19:34;;;;;;;19.88;3.55;;;;;;;27.95;42.45;99964.00;6305576;28;20411;-81
2021/08/23 09:22:35;;;;;;;20.75;4.45;;;;;;;28.11;41.19;99960.88;6305515;28;20044;-81
2021/08/23 09:25:36;;;;;;;17.48;4.03;;;;;;;28.12;41.95;99956.31;6271233;28;20063;-81
2021/08/23 09:28:39;;;;;;;12.80;3.80;;;;;;;28.20;43.12;99953.41;6305360;28;20044;-81
2021/08/23 09:31:41;;;;;;;10.05;3.83;;;;;;;28.30;41.43;99950.28;6288958;28;20070;-80
2021/08/23 09:34:46;;;;;;;14.82;3.72;;;;;;;28.30;39.64;99944.94;6288626;28;20096;-83
2021/08/23 09:37:48;;;;;;;22.05;4.07;;;;;;;28.53;44.97;99942.56;6271910;28;20065;-81
2021/08/23 09:40:51;;;;;;;17.13;4.45;;;;;;;28.53;41.93;99942.56;6322028;28;20044;-81
2021/08/23 09:44:05;;;;;;;17.02;3.78;;;;;;;28.70;39.02;99934.00;6289626;28;20188;-81
2021/08/23 09:47:06;;;;;;;14.70;3.75;;;;;;;28.94;41.45;99943.16;6323323;28;20148;-80
2021/08/23 09:50:13;;;;;;;;;;;;;;;28.98;39.26;99939.00;6322514;28;20123;-84
2021/08/23 09:53:16;;;;;;;7.55;3.80;;;;;;;28.99;42.43;99932.59;6321907;28;19920;-81
2021/08/23 09:56:16;;;;;;;8.27;3.75;;;;;;;29.17;39.16;99929.19;6305275;28;20094;-84
2021/08/23 09:59:20;;;;;;;17.05;4.13;;;;;;;29.57;42.17;99933.41;6321765;28;20044;-83
2021/08/23 10:02:21;;;;;;;17.25;3.85;;;;;;;29.61;43.30;99938.13;6321665;28;20040;-83
2021/08/23 10:05:23;;;;;;;10.20;4.00;;;;;;;29.90;38.77;99930.44;6304512;28;20475;-86
2021/08/23 10:08:25;;;;;;;9.75;4.18;;;;;;;29.83;36.00;99926.97;6314392;28;20052;-82
2021/08/23 10:11:26;;;;;;;11.90;3.60;;;;;;;29.91;36.58;99921.31;6302878;28;20043;-81
2021/08/23 10:14:27;;;;;;;11.23;3.45;;;;;;;30.07;35.31;99922.56;6288118;28;20032;-81
2021/08/23 10:17:36;;;;;;;12.88;2.78;;;;;;;30.29;35.06;99921.09;6271527;28;20548;-83
2021/08/23 10:20:38;;;;;;;12.02;3.10;;;;;;;30.61;33.80;99920.06;6304415;28;20043;-83
2021/08/23 10:23:42;;;;;;;9.32;3.28;;;;;;;30.72;33.05;99914.72;6288174;28;20044;-82
2021/08/23 10:26:45;;;;;;;20.38;3.75;;;;;;;30.69;33.70;99907.09;6304220;28;20043;-84
2021/08/23 10:29:48;;;;;;;7.63;2.97;;;;;;;30.84;31.98;99911.22;6322010;28;20104;-84
2021/08/23 10:32:50;;;;;;;8.93;2.70;;;;;;;30.96;33.80;99920.19;6304061;28;20044;-84
2021/08/23 10:35:55;;;;;;;14.55;2.90;;;;;;;30.93;31.17;99912.56;6302933;28;20059;-84
2021/08/23 10:39:02;;;;;;;7.60;2.88;;;;;;;30.96;32.96;99916.69;6304053;28;20387;-81
2021/08/23 10:42:11;;;;;;;8.23;2.58;;;;;;;31.11;32.22;99917.88;6287596;28;20044;-82
2021/08/23 10:45:16;;;;;;;6.28;3.10;;;;;;;31.34;30.87;99916.28;6304045;28;20040;-80
2021/08/23 10:48:20;;;;;;;4.28;2.65;;;;;;;31.42;33.17;99920.47;6284507;28;20545;-84
2021/08/23 10:51:34;;;;;;;10.20;2.97;;;;;;;31.44;35.05;99902.22;6278946;28;20407;-84
2021/08/23 10:54:43;;;;;;;10.57;3.20;;;;;;;31.34;33.83;99910.88;6278767;28;20044;-80
2021/08/23 10:57:43;;;;;;;6.38;3.03;;;;;;;30.82;30.79;99895.28;6270420;28;20040;-84
2021/08/23 11:00:44;;;;;;;;;;;;;;;31.02;31.19;99892.31;6285594;28;20551;-80
2021/08/23 11:03:45;;;;;;;4.57;2.70;;;;;;;31.28;29.98;99891.06;6285639;28;19923;-82
2021/08/23 11:06:49;;;;;;;;;;;;;;;31.25;29.81;99896.09;6304251;28;20042;-82
2021/08/23 11:10:11;;;;;;;5.63;2.72;;;;;;;31.59;33.59;99886.41;6278814;28;19927;-81
2021/08/23 11:13:18;;;;;;;10.68;3.17;;;;;;;31.88;32.77;99878.38;6308942;28;20388;-81
2021/08/23 11:16:25;;;;;;;3.83;2.80;;;;;;;32.02;28.35;99870.84;6290987;28;20067;-85
2021/08/23 11:19:26;;;;;;;4.80;2.63;;;;;;;31.71;29.20;99873.72;6279593;28;20143;-83
2021/08/23 11:22:27;;;;;;;;;;;;;;;31.72;30.19;99863.75;6287532;28;20052;-81
2021/08/23 11:25:34;;;;;;;8.27;2.80;;;;;;;32.07;28.89;99865.56;6303618;28;20018;-85
2021/08/23 11:28:34;;;;;;;10.10;2.50;;;;;;;32.28;31.71;99859.50;6303284;28;20399;-83
2021/08/23 11:31:35;;;;;;;;;;;;;;;32.30;30.42;99864.66;6270678;28;20040;-81
2021/08/23 11:34:36;;;;;;;3.92;2.97;;;;;;;32.51;32.50;99855.03;6303619;28;20320;-82
2021/08/23 11:37:37;;;;;;;8.93;2.90;;;;;;;32.69;28.68;99859.44;6286600;28;20056;-85
2021/08/23 11:40:40;;;;;;;4.68;3.05;;;;;;;32.54;27.74;99846.50;6270110;28;20123;-80
2021/08/23 11:43:42;;;;;;;16.73;3.13;;;;;;;32.27;30.72;99847.06;6286615;28;20068;-84
2021/08/23 11:46:57;;;;;;;4.80;3.00;;;;;;;32.40;30.08;99840.53;6322116;28;20093;-84
2021/08/23 11:50:00;;;;;;;8.02;2.80;;;;;;;32.18;31.64;99835.00;6307933;28;20071;-80
2021/08/23 11:53:03;;;;;;;9.43;2.85;;;;;;;31.51;29.21;99833.66;6307583;28;20046;-81
2021/08/23 11:56:06;;;;;;;7.97;3.05;;;;;;;31.37;31.70;99826.84;6307760;28;20040;-78
2021/08/23 11:59:13;;;;;;;7.40;3.00;;;;;;;31.65;29.56;99822.59;6307798;28;20040;-85
2021/08/23 12:02:14;;;;;;;8.50;2.88;;;;;;;31.80;30.51;99816.72;6273628;28;20127;-86
2021/08/23 12:05:16;;;;;;;6.18;2.90;;;;;;;32.05;29.15;99806.44;6307398;28;20123;-84
2021/08/23 12:08:27;;;;;;;5.25;3.03;;;;;;;32.26;29.88;99807.63;6290730;28;20164;-80
2021/08/23 12:11:40;;;;;;;8.23;3.40;;;;;;;32.16;31.22;99795.84;6290846;28;20046;-80
2021/08/23 12:14:41;;;;;;;14.52;3.30;;;;;;;32.24;31.31;99795.44;6283288;28;20051;-83
2021/08/23 12:17:41;;;;;;;7.25;3.08;;;;;;;32.35;33.42;99794.56;6298064;28;20044;-81
2021/08/23 12:20:43;;;;;;;8.63;3.20;;;;;;;32.19;30.61;99793.47;6290587;28;20036;-80
2021/08/23 12:23:49;;;;;;;15.27;4.32;;;;;;;32.12;28.57;99788.25;6307671;28;20414;-84
2021/08/23 12:26:54;;;;;;;14.05;3.42;;;;;;;32.25;33.82;99784.41;6307038;28;20076;-79
2021/08/23 12:29:55;;;;;;;7.95;3.10;;;;;;;32.57;33.23;99780.38;6300788;28;20525;-81
2021/08/23 12:32:57;;;;;;;13.75;3.10;;;;;;;32.60;28.66;99782.59;6289113;28;20040;-82
2021/08/23 12:35:58;;;;;;;7.60;2.90;;;;;;;32.10;30.79;99778.72;6281866;28;20064;-80
2021/08/23 12:38:59;;;;;;;8.98;3.15;;;;;;;31.88;32.83;99776.69;6282027;28;20044;-84
2021/08/23 12:42:03;;;;;;;8.63;3.35;;;;;;;31.68;31.92;99776.28;6281764;28;20102;-84
2021/08/23 12:45:04;;;;;;;7.40;3.10;;;;;;;32.17;30.59;99771.31;6281778;28;20048;-81
2021/08/23 12:48:08;;;;;;;9.65;3.13;;;;;;;32.31;27.49;99767.25;6281986;28;20032;-80
2021/08/23 12:51:09;;;;;;;8.02;3.15;;;;;;;32.62;29.69;99756.97;6282766;28;20052;-80
2021/08/23 12:54:11;;;;;;;9.32;3.15;;;;;;;32.49;31.08;99758.09;6263121;28;20417;-79
2021/08/23 12:57:12;;;;;;;6.38;2.97;;;;;;;32.29;30.02;99752.38;6323265;28;20032;-82
2021/08/23 13:00:13;;;;;;;3.92;2.85;;;;;;;32.21;29.92;99752.75;6288317;28;20463;-81
2021/08/23 13:03:14;;;;;;;8.27;2.95;;;;;;;32.49;29.47;99751.84;6289251;28;20036;-85
2021/08/23 13:06:16;;;;;;;6.18;2.97;;;;;;;32.54;29.59;99752.00;6289079;28;20043;-81
2021/08/23 13:09:17;;;;;;;9.05;3.05;;;;;;;32.43;27.87;99745.59;6289837;28;20040;-82
2021/08/23 13:12:18;;;;;;;7.25;3.13;;;;;;;32.29;29.28;99749.66;6306317;28;20040;-84
2021/08/23 13:15:19;;;;;;;5.60;2.88;;;;;;;32.25;30.19;99743.13;6305470;28;20039;-86
2021/08/23 13:18:20;;;;;;;3.92;2.90;;;;;;;31.85;30.18;99739.38;6295081;28;20126;-79
2021/08/23 13:21:22;;;;;;;10.20;3.00;;;;;;;32.03;29.09;99732.19;6305867;28;20046;-79
2021/08/23 13:24:23;;;;;;;12.40;3.08;;;;;;;32.04;29.22;99731.97;6306048;28;20128;-80
2021/08/23 13:27:25;;;;;;;4.90;2.47;;;;;;;32.24;27.78;99726.06;6272446;28;20051;-87
2021/08/23 13:30:25;;;;;;;4.25;2.60;;;;;;;32.24;28.74;99727.97;6305662;28;20038;-86
2021/08/23 13:33:27;;;;;;;6.68;2.72;;;;;;;32.09;27.94;99732.03;6288209;28;20490;-86
2021/08/23 13:36:28;;;;;;;4.72;2.95;;;;;;;32.05;31.90;99728.19;6305058;28;20068;-86
2021/08/23 13:39:29;;;;;;;11.57;2.95;;;;;;;31.97;30.28;99716.94;6288567;28;20044;-86
2021/08/23 13:42:30;;;;;;;5.75;2.65;;;;;;;31.91;32.37;99727.63;6287853;28;20407;-78
2021/08/23 13:45:31;;;;;;;5.18;3.00;;;;;;;31.91;28.13;99718.72;6271493;28;20075;-85
2021/08/23 13:48:32;;;;;;;4.90;2.58;;;;;;;32.00;27.61;99724.56;6305067;28;20040;-86
2021/08/23 13:51:32;;;;;;;;;;;;;;;31.87;27.53;99714.88;6305198;28;20094;-87
2021/08/23 13:54:33;;;;;;;10.00;2.75;;;;;;;31.86;27.13;99724.03;6288280;28;19920;-84
2021/08/23 13:57:34;;;;;;;;;;;;;;;31.77;28.24;99723.59;6305718;28;20501;-79
2021/08/23 14:00:35;;;;;;;10.50;2.60;;;;;;;31.72;29.26;99728.91;6288753;28;19920;-80
2021/08/23 14:03:35;;;;;;;;;;;;;;;31.55;28.34;99722.63;6323398;28;20280;-86
2021/08/23 14:06:36;;;;;;;4.55;2.53;;;;;;;31.23;29.85;99718.47;6288247;28;19920;-86
2021/08/23 14:09:37;;;;;;;;;;;;;;;30.92;28.62;99723.19;6272062;28;20073;-80
2021/08/23 14:12:38;;;;;;;4.50;2.57;;;;;;;30.52;31.01;99723.88;6288109;28;19920;-80